sensor_id;sensor_type;location;lat;lon;timestamp;P1;durP1;ratioP1;P2;durP2;ratioP2
60054;SDS011;45930;53.514;55.904;2023-08-06T00:00:16;29.48;;;19.42;;
60054;SDS011;45930;53.514;55.904;2023-08-06T00:01:17;31.00;;;18.88;;
60054;SDS011;45930;53.514;55.904;2023-08-06T00:02:21;30.70;;;19.13;;
60054;SDS011;45930;53.514;55.904;2023-08-06T00:03:22;28.48;;;19.98;;
60054;SDS011;45930;53.514;55.904;2023-08-06T00:04:23;27.67;;;17.95;;
60054;SDS011;45930;53.514;55.904;2023-08-06T00:05:23;27.20;;;19.27;;
60054;SDS011;45930;53.514;55.904;2023-08-06T00:06:24;37.70;;;20.13;;
60054;SDS011;45930;53.514;55.904;2023-08-06T00:07:25;27.88;;;17.77;;
60054;SDS011;45930;53.514;55.904;2023-08-06T00:08:26;25.83;;;18.10;;
60054;SDS011;45930;53.514;55.904;2023-08-06T00:09:27;28.77;;;17.95;;
60054;SDS011;45930;53.514;55.904;2023-08-06T00:10:27;27.27;;;18.20;;
60054;SDS011;45930;53.514;55.904;2023-08-06T00:11:28;32.58;;;20.70;;
60054;SDS011;45930;53.514;55.904;2023-08-06T00:12:29;35.33;;;19.67;;
60054;SDS011;45930;53.514;55.904;2023-08-06T00:13:30;37.08;;;20.40;;
60054;SDS011;45930;53.514;55.904;2023-08-06T00:14:31;29.02;;;19.73;;
60054;SDS011;45930;53.514;55.904;2023-08-06T00:15:32;31.83;;;20.88;;
60054;SDS011;45930;53.514;55.904;2023-08-06T00:16:32;27.83;;;20.08;;
60054;SDS011;45930;53.514;55.904;2023-08-06T00:17:33;30.60;;;19.95;;
60054;SDS011;45930;53.514;55.904;2023-08-06T00:18:34;31.48;;;20.17;;
60054;SDS011;45930;53.514;55.904;2023-08-06T00:19:35;31.65;;;19.95;;
60054;SDS011;45930;53.514;55.904;2023-08-06T00:20:38;31.40;;;20.60;;
60054;SDS011;45930;53.514;55.904;2023-08-06T00:21:39;28.90;;;20.17;;
60054;SDS011;45930;53.514;55.904;2023-08-06T00:22:40;30.52;;;20.27;;
60054;SDS011;45930;53.514;55.904;2023-08-06T00:23:41;33.42;;;21.45;;
60054;SDS011;45930;53.514;55.904;2023-08-06T00:24:42;35.00;;;20.13;;
60054;SDS011;45930;53.514;55.904;2023-08-06T00:25:42;32.05;;;20.30;;
60054;SDS011;45930;53.514;55.904;2023-08-06T00:26:43;32.88;;;21.52;;
60054;SDS011;45930;53.514;55.904;2023-08-06T00:27:44;29.40;;;20.45;;
60054;SDS011;45930;53.514;55.904;2023-08-06T00:28:45;29.40;;;19.42;;
60054;SDS011;45930;53.514;55.904;2023-08-06T00:29:46;26.48;;;19.17;;
60054;SDS011;45930;53.514;55.904;2023-08-06T00:30:51;27.60;;;18.92;;
60054;SDS011;45930;53.514;55.904;2023-08-06T00:31:53;31.92;;;18.98;;
60054;SDS011;45930;53.514;55.904;2023-08-06T00:32:54;28.98;;;19.90;;
60054;SDS011;45930;53.514;55.904;2023-08-06T00:33:56;28.58;;;18.85;;
60054;SDS011;45930;53.514;55.904;2023-08-06T00:34:56;26.83;;;19.42;;
60054;SDS011;45930;53.514;55.904;2023-08-06T00:35:57;25.85;;;18.85;;
60054;SDS011;45930;53.514;55.904;2023-08-06T00:36:58;28.05;;;18.52;;
60054;SDS011;45930;53.514;55.904;2023-08-06T00:37:59;27.73;;;18.95;;
60054;SDS011;45930;53.514;55.904;2023-08-06T00:39:00;26.52;;;18.80;;
60054;SDS011;45930;53.514;55.904;2023-08-06T00:40:01;30.63;;;19.02;;
60054;SDS011;45930;53.514;55.904;2023-08-06T00:41:01;30.65;;;19.00;;
60054;SDS011;45930;53.514;55.904;2023-08-06T00:42:02;46.13;;;20.60;;
60054;SDS011;45930;53.514;55.904;2023-08-06T00:43:03;32.72;;;18.77;;
60054;SDS011;45930;53.514;55.904;2023-08-06T00:44:04;27.60;;;17.52;;
60054;SDS011;45930;53.514;55.904;2023-08-06T00:45:05;29.13;;;19.13;;
60054;SDS011;45930;53.514;55.904;2023-08-06T00:46:06;26.80;;;18.25;;
60054;SDS011;45930;53.514;55.904;2023-08-06T00:47:07;31.63;;;19.50;;
60054;SDS011;45930;53.514;55.904;2023-08-06T00:48:09;31.95;;;19.88;;
60054;SDS011;45930;53.514;55.904;2023-08-06T00:49:10;28.23;;;19.52;;
60054;SDS011;45930;53.514;55.904;2023-08-06T00:50:11;26.73;;;19.52;;
60054;SDS011;45930;53.514;55.904;2023-08-06T00:51:12;27.85;;;19.08;;
60054;SDS011;45930;53.514;55.904;2023-08-06T00:52:14;28.17;;;19.05;;
60054;SDS011;45930;53.514;55.904;2023-08-06T00:53:15;29.40;;;18.23;;
60054;SDS011;45930;53.514;55.904;2023-08-06T00:54:16;28.52;;;18.30;;
60054;SDS011;45930;53.514;55.904;2023-08-06T00:55:17;27.50;;;17.60;;
60054;SDS011;45930;53.514;55.904;2023-08-06T00:56:18;26.73;;;18.00;;
60054;SDS011;45930;53.514;55.904;2023-08-06T00:57:19;25.13;;;17.65;;
60054;SDS011;45930;53.514;55.904;2023-08-06T00:58:25;27.08;;;18.35;;
60054;SDS011;45930;53.514;55.904;2023-08-06T00:59:26;24.80;;;16.70;;
60054;SDS011;45930;53.514;55.904;2023-08-06T01:00:27;26.45;;;17.98;;
60054;SDS011;45930;53.514;55.904;2023-08-06T01:01:28;22.85;;;16.27;;
60054;SDS011;45930;53.514;55.904;2023-08-06T01:02:29;24.33;;;17.58;;
60054;SDS011;45930;53.514;55.904;2023-08-06T01:03:30;24.52;;;16.45;;
60054;SDS011;45930;53.514;55.904;2023-08-06T01:04:31;25.70;;;17.15;;
60054;SDS011;45930;53.514;55.904;2023-08-06T01:05:34;25.63;;;16.83;;
60054;SDS011;45930;53.514;55.904;2023-08-06T01:06:45;28.95;;;15.90;;
60054;SDS011;45930;53.514;55.904;2023-08-06T01:12:45;23.20;;;18.35;;
60054;SDS011;45930;53.514;55.904;2023-08-06T01:14:03;29.08;;;18.65;;
60054;SDS011;45930;53.514;55.904;2023-08-06T01:16:28;30.23;;;17.17;;
60054;SDS011;45930;53.514;55.904;2023-08-06T01:17:30;29.40;;;16.65;;
60054;SDS011;45930;53.514;55.904;2023-08-06T01:18:32;26.15;;;16.95;;
60054;SDS011;45930;53.514;55.904;2023-08-06T01:19:33;23.38;;;16.90;;
60054;SDS011;45930;53.514;55.904;2023-08-06T01:20:33;24.48;;;16.77;;
60054;SDS011;45930;53.514;55.904;2023-08-06T01:21:34;23.20;;;17.73;;
60054;SDS011;45930;53.514;55.904;2023-08-06T01:22:35;23.30;;;16.92;;
60054;SDS011;45930;53.514;55.904;2023-08-06T01:23:36;25.17;;;16.85;;
60054;SDS011;45930;53.514;55.904;2023-08-06T01:24:37;26.30;;;16.17;;
60054;SDS011;45930;53.514;55.904;2023-08-06T01:25:41;24.58;;;16.85;;
60054;SDS011;45930;53.514;55.904;2023-08-06T01:27:54;23.63;;;15.65;;
60054;SDS011;45930;53.514;55.904;2023-08-06T01:30:25;26.80;;;16.15;;
60054;SDS011;45930;53.514;55.904;2023-08-06T01:31:39;25.60;;;16.20;;
60054;SDS011;45930;53.514;55.904;2023-08-06T01:32:44;24.50;;;16.38;;
60054;SDS011;45930;53.514;55.904;2023-08-06T01:33:49;25.30;;;16.38;;
60054;SDS011;45930;53.514;55.904;2023-08-06T01:34:51;23.38;;;15.15;;
60054;SDS011;45930;53.514;55.904;2023-08-06T01:35:54;27.73;;;15.55;;
60054;SDS011;45930;53.514;55.904;2023-08-06T01:36:56;22.90;;;15.65;;
60054;SDS011;45930;53.514;55.904;2023-08-06T01:37:58;25.55;;;16.25;;
60054;SDS011;45930;53.514;55.904;2023-08-06T01:39:00;21.83;;;15.55;;
60054;SDS011;45930;53.514;55.904;2023-08-06T01:40:01;25.77;;;16.35;;
60054;SDS011;45930;53.514;55.904;2023-08-06T01:41:02;26.58;;;16.38;;
60054;SDS011;45930;53.514;55.904;2023-08-06T01:42:03;25.83;;;18.38;;
60054;SDS011;45930;53.514;55.904;2023-08-06T01:43:04;30.00;;;17.00;;
60054;SDS011;45930;53.514;55.904;2023-08-06T01:44:05;26.08;;;15.65;;
60054;SDS011;45930;53.514;55.904;2023-08-06T01:45:06;32.08;;;17.02;;
60054;SDS011;45930;53.514;55.904;2023-08-06T01:46:08;25.45;;;15.90;;
60054;SDS011;45930;53.514;55.904;2023-08-06T01:47:09;25.05;;;15.13;;
60054;SDS011;45930;53.514;55.904;2023-08-06T01:48:09;23.27;;;16.23;;
60054;SDS011;45930;53.514;55.904;2023-08-06T01:49:10;26.52;;;16.73;;
60054;SDS011;45930;53.514;55.904;2023-08-06T01:50:11;24.20;;;15.48;;
60054;SDS011;45930;53.514;55.904;2023-08-06T01:51:12;27.20;;;17.30;;
60054;SDS011;45930;53.514;55.904;2023-08-06T01:52:12;24.30;;;16.30;;
60054;SDS011;45930;53.514;55.904;2023-08-06T01:53:13;26.98;;;17.02;;
60054;SDS011;45930;53.514;55.904;2023-08-06T01:54:14;32.38;;;18.60;;
60054;SDS011;45930;53.514;55.904;2023-08-06T01:55:15;24.77;;;17.10;;
60054;SDS011;45930;53.514;55.904;2023-08-06T01:56:16;30.15;;;18.88;;
60054;SDS011;45930;53.514;55.904;2023-08-06T01:57:17;30.95;;;19.60;;
60054;SDS011;45930;53.514;55.904;2023-08-06T01:58:18;29.48;;;19.35;;
60054;SDS011;45930;53.514;55.904;2023-08-06T01:59:18;28.38;;;18.48;;
60054;SDS011;45930;53.514;55.904;2023-08-06T02:00:19;32.28;;;19.02;;
60054;SDS011;45930;53.514;55.904;2023-08-06T02:01:20;32.28;;;20.30;;
60054;SDS011;45930;53.514;55.904;2023-08-06T02:02:21;29.48;;;18.73;;
60054;SDS011;45930;53.514;55.904;2023-08-06T02:03:22;32.08;;;19.65;;
60054;SDS011;45930;53.514;55.904;2023-08-06T02:04:22;28.52;;;19.42;;
60054;SDS011;45930;53.514;55.904;2023-08-06T02:05:23;31.00;;;20.52;;
60054;SDS011;45930;53.514;55.904;2023-08-06T02:06:24;33.90;;;20.65;;
60054;SDS011;45930;53.514;55.904;2023-08-06T02:07:25;33.83;;;21.58;;
60054;SDS011;45930;53.514;55.904;2023-08-06T02:08:27;29.05;;;19.80;;
60054;SDS011;45930;53.514;55.904;2023-08-06T02:09:27;48.33;;;22.65;;
60054;SDS011;45930;53.514;55.904;2023-08-06T02:10:28;49.13;;;20.67;;
60054;SDS011;45930;53.514;55.904;2023-08-06T02:11:29;32.03;;;21.73;;
60054;SDS011;45930;53.514;55.904;2023-08-06T02:12:30;31.50;;;22.48;;
60054;SDS011;45930;53.514;55.904;2023-08-06T02:13:31;32.35;;;21.35;;
60054;SDS011;45930;53.514;55.904;2023-08-06T02:14:32;36.17;;;21.88;;
60054;SDS011;45930;53.514;55.904;2023-08-06T02:15:33;40.33;;;21.48;;
60054;SDS011;45930;53.514;55.904;2023-08-06T02:16:33;35.03;;;22.13;;
60054;SDS011;45930;53.514;55.904;2023-08-06T02:17:34;38.92;;;24.10;;
60054;SDS011;45930;53.514;55.904;2023-08-06T02:18:35;34.63;;;23.20;;
60054;SDS011;45930;53.514;55.904;2023-08-06T02:19:36;35.92;;;23.45;;
60054;SDS011;45930;53.514;55.904;2023-08-06T02:20:37;34.50;;;22.40;;
60054;SDS011;45930;53.514;55.904;2023-08-06T02:21:38;37.78;;;24.25;;
60054;SDS011;45930;53.514;55.904;2023-08-06T02:22:39;34.72;;;23.70;;
60054;SDS011;45930;53.514;55.904;2023-08-06T02:23:39;39.53;;;24.65;;
60054;SDS011;45930;53.514;55.904;2023-08-06T02:24:40;36.22;;;25.13;;
60054;SDS011;45930;53.514;55.904;2023-08-06T02:25:41;37.92;;;24.52;;
60054;SDS011;45930;53.514;55.904;2023-08-06T02:26:42;37.20;;;25.30;;
60054;SDS011;45930;53.514;55.904;2023-08-06T02:27:42;34.88;;;24.55;;
60054;SDS011;45930;53.514;55.904;2023-08-06T02:28:43;35.58;;;25.63;;
60054;SDS011;45930;53.514;55.904;2023-08-06T02:29:44;36.17;;;24.42;;
60054;SDS011;45930;53.514;55.904;2023-08-06T02:30:51;40.13;;;23.25;;
60054;SDS011;45930;53.514;55.904;2023-08-06T02:31:52;34.72;;;22.73;;
60054;SDS011;45930;53.514;55.904;2023-08-06T02:32:53;33.72;;;23.70;;
60054;SDS011;45930;53.514;55.904;2023-08-06T02:33:54;33.10;;;22.77;;
60054;SDS011;45930;53.514;55.904;2023-08-06T02:34:54;34.97;;;22.75;;
60054;SDS011;45930;53.514;55.904;2023-08-06T02:35:59;31.70;;;20.42;;
60054;SDS011;45930;53.514;55.904;2023-08-06T02:37:01;32.53;;;21.35;;
60054;SDS011;45930;53.514;55.904;2023-08-06T02:38:02;32.63;;;21.88;;
60054;SDS011;45930;53.514;55.904;2023-08-06T02:39:03;32.30;;;20.80;;
60054;SDS011;45930;53.514;55.904;2023-08-06T02:40:04;31.63;;;21.23;;
60054;SDS011;45930;53.514;55.904;2023-08-06T02:41:05;28.65;;;18.27;;
60054;SDS011;45930;53.514;55.904;2023-08-06T02:42:07;26.88;;;17.75;;
60054;SDS011;45930;53.514;55.904;2023-08-06T02:43:08;25.58;;;16.77;;
60054;SDS011;45930;53.514;55.904;2023-08-06T02:44:09;24.27;;;16.00;;
60054;SDS011;45930;53.514;55.904;2023-08-06T02:45:09;21.95;;;15.85;;
60054;SDS011;45930;53.514;55.904;2023-08-06T02:46:10;19.67;;;15.23;;
60054;SDS011;45930;53.514;55.904;2023-08-06T02:47:11;23.98;;;15.45;;
60054;SDS011;45930;53.514;55.904;2023-08-06T02:48:12;22.98;;;15.10;;
60054;SDS011;45930;53.514;55.904;2023-08-06T02:49:12;22.08;;;15.30;;
60054;SDS011;45930;53.514;55.904;2023-08-06T02:50:13;22.83;;;14.85;;
60054;SDS011;45930;53.514;55.904;2023-08-06T02:51:14;25.60;;;15.27;;
60054;SDS011;45930;53.514;55.904;2023-08-06T02:52:15;22.65;;;15.70;;
60054;SDS011;45930;53.514;55.904;2023-08-06T02:53:16;25.20;;;15.77;;
60054;SDS011;45930;53.514;55.904;2023-08-06T02:54:17;20.92;;;15.45;;
60054;SDS011;45930;53.514;55.904;2023-08-06T02:55:18;23.50;;;16.25;;
60054;SDS011;45930;53.514;55.904;2023-08-06T02:56:19;23.73;;;16.30;;
60054;SDS011;45930;53.514;55.904;2023-08-06T02:57:20;21.45;;;15.80;;
60054;SDS011;45930;53.514;55.904;2023-08-06T02:58:21;28.35;;;19.35;;
60054;SDS011;45930;53.514;55.904;2023-08-06T02:59:24;20.40;;;15.35;;
60054;SDS011;45930;53.514;55.904;2023-08-06T03:00:25;23.00;;;16.00;;
60054;SDS011;45930;53.514;55.904;2023-08-06T03:01:26;21.30;;;15.20;;
60054;SDS011;45930;53.514;55.904;2023-08-06T03:02:28;20.50;;;15.80;;
60054;SDS011;45930;53.514;55.904;2023-08-06T03:03:30;25.73;;;16.70;;
60054;SDS011;45930;53.514;55.904;2023-08-06T03:04:31;25.90;;;16.98;;
60054;SDS011;45930;53.514;55.904;2023-08-06T03:05:32;21.80;;;15.98;;
60054;SDS011;45930;53.514;55.904;2023-08-06T03:06:33;21.88;;;17.08;;
60054;SDS011;45930;53.514;55.904;2023-08-06T03:07:34;26.67;;;16.27;;
60054;SDS011;45930;53.514;55.904;2023-08-06T03:08:36;21.05;;;16.00;;
60054;SDS011;45930;53.514;55.904;2023-08-06T03:09:37;22.35;;;16.42;;
60054;SDS011;45930;53.514;55.904;2023-08-06T03:10:38;23.73;;;17.40;;
60054;SDS011;45930;53.514;55.904;2023-08-06T03:11:38;22.02;;;16.60;;
60054;SDS011;45930;53.514;55.904;2023-08-06T03:12:39;23.55;;;16.65;;
60054;SDS011;45930;53.514;55.904;2023-08-06T03:13:40;22.70;;;16.38;;
60054;SDS011;45930;53.514;55.904;2023-08-06T03:14:41;20.85;;;16.88;;
60054;SDS011;45930;53.514;55.904;2023-08-06T03:15:42;22.35;;;16.63;;
60054;SDS011;45930;53.514;55.904;2023-08-06T03:16:43;25.42;;;16.65;;
60054;SDS011;45930;53.514;55.904;2023-08-06T03:17:43;24.45;;;16.83;;
60054;SDS011;45930;53.514;55.904;2023-08-06T03:18:44;21.05;;;16.00;;
60054;SDS011;45930;53.514;55.904;2023-08-06T03:19:45;25.27;;;16.75;;
60054;SDS011;45930;53.514;55.904;2023-08-06T03:20:46;22.45;;;17.77;;
60054;SDS011;45930;53.514;55.904;2023-08-06T03:21:47;25.48;;;17.48;;
60054;SDS011;45930;53.514;55.904;2023-08-06T03:22:48;24.08;;;17.35;;
60054;SDS011;45930;53.514;55.904;2023-08-06T03:23:50;20.40;;;16.05;;
60054;SDS011;45930;53.514;55.904;2023-08-06T03:24:51;20.17;;;16.90;;
60054;SDS011;45930;53.514;55.904;2023-08-06T03:25:52;26.00;;;17.25;;
60054;SDS011;45930;53.514;55.904;2023-08-06T03:26:53;23.33;;;16.88;;
60054;SDS011;45930;53.514;55.904;2023-08-06T03:27:54;26.23;;;16.27;;
60054;SDS011;45930;53.514;55.904;2023-08-06T03:28:54;24.48;;;16.85;;
60054;SDS011;45930;53.514;55.904;2023-08-06T03:29:55;22.17;;;15.73;;
60054;SDS011;45930;53.514;55.904;2023-08-06T03:30:59;21.48;;;16.38;;
60054;SDS011;45930;53.514;55.904;2023-08-06T03:32:01;23.23;;;16.83;;
60054;SDS011;45930;53.514;55.904;2023-08-06T03:33:02;18.27;;;16.13;;
60054;SDS011;45930;53.514;55.904;2023-08-06T03:34:03;23.40;;;16.88;;
60054;SDS011;45930;53.514;55.904;2023-08-06T03:35:04;23.23;;;16.98;;
60054;SDS011;45930;53.514;55.904;2023-08-06T03:36:06;21.50;;;15.73;;
60054;SDS011;45930;53.514;55.904;2023-08-06T03:37:07;19.25;;;16.13;;
60054;SDS011;45930;53.514;55.904;2023-08-06T03:38:07;20.90;;;15.27;;
60054;SDS011;45930;53.514;55.904;2023-08-06T03:39:08;18.85;;;16.15;;
60054;SDS011;45930;53.514;55.904;2023-08-06T03:40:09;23.10;;;17.25;;
60054;SDS011;45930;53.514;55.904;2023-08-06T03:41:10;21.52;;;16.08;;
60054;SDS011;45930;53.514;55.904;2023-08-06T03:42:11;20.80;;;15.75;;
60054;SDS011;45930;53.514;55.904;2023-08-06T03:43:12;30.85;;;16.73;;
60054;SDS011;45930;53.514;55.904;2023-08-06T03:44:13;19.75;;;16.67;;
60054;SDS011;45930;53.514;55.904;2023-08-06T03:45:14;20.48;;;15.48;;
60054;SDS011;45930;53.514;55.904;2023-08-06T03:46:14;17.02;;;14.73;;
60054;SDS011;45930;53.514;55.904;2023-08-06T03:47:15;22.83;;;17.00;;
60054;SDS011;45930;53.514;55.904;2023-08-06T03:48:16;34.70;;;17.33;;
60054;SDS011;45930;53.514;55.904;2023-08-06T03:49:17;25.50;;;16.30;;
60054;SDS011;45930;53.514;55.904;2023-08-06T03:50:18;22.15;;;16.13;;
60054;SDS011;45930;53.514;55.904;2023-08-06T03:51:18;21.98;;;15.82;;
60054;SDS011;45930;53.514;55.904;2023-08-06T03:52:19;20.02;;;15.60;;
60054;SDS011;45930;53.514;55.904;2023-08-06T03:53:20;20.30;;;17.10;;
60054;SDS011;45930;53.514;55.904;2023-08-06T03:54:21;19.02;;;16.20;;
60054;SDS011;45930;53.514;55.904;2023-08-06T03:55:22;21.90;;;16.80;;
60054;SDS011;45930;53.514;55.904;2023-08-06T03:56:23;21.20;;;16.95;;
60054;SDS011;45930;53.514;55.904;2023-08-06T03:57:23;24.95;;;17.73;;
60054;SDS011;45930;53.514;55.904;2023-08-06T03:58:24;21.42;;;17.08;;
60054;SDS011;45930;53.514;55.904;2023-08-06T03:59:25;21.23;;;17.80;;
60054;SDS011;45930;53.514;55.904;2023-08-06T04:00:26;18.83;;;16.15;;
60054;SDS011;45930;53.514;55.904;2023-08-06T04:01:26;19.35;;;17.20;;
60054;SDS011;45930;53.514;55.904;2023-08-06T04:02:27;20.88;;;16.73;;
60054;SDS011;45930;53.514;55.904;2023-08-06T04:03:28;22.63;;;17.30;;
60054;SDS011;45930;53.514;55.904;2023-08-06T04:04:29;21.67;;;17.02;;
60054;SDS011;45930;53.514;55.904;2023-08-06T04:05:33;22.42;;;17.88;;
60054;SDS011;45930;53.514;55.904;2023-08-06T04:06:34;23.67;;;18.92;;
60054;SDS011;45930;53.514;55.904;2023-08-06T04:07:35;24.95;;;18.25;;
60054;SDS011;45930;53.514;55.904;2023-08-06T04:08:35;22.95;;;18.00;;
60054;SDS011;45930;53.514;55.904;2023-08-06T04:09:51;24.20;;;18.88;;
60054;SDS011;45930;53.514;55.904;2023-08-06T04:10:53;21.27;;;18.60;;
60054;SDS011;45930;53.514;55.904;2023-08-06T04:11:54;25.77;;;17.98;;
60054;SDS011;45930;53.514;55.904;2023-08-06T04:12:55;21.08;;;17.92;;
60054;SDS011;45930;53.514;55.904;2023-08-06T04:13:56;22.63;;;16.70;;
60054;SDS011;45930;53.514;55.904;2023-08-06T04:14:57;22.20;;;18.90;;
60054;SDS011;45930;53.514;55.904;2023-08-06T04:16:02;22.38;;;17.60;;
60054;SDS011;45930;53.514;55.904;2023-08-06T04:17:04;23.70;;;17.85;;
60054;SDS011;45930;53.514;55.904;2023-08-06T04:18:04;23.98;;;18.58;;
60054;SDS011;45930;53.514;55.904;2023-08-06T04:19:05;25.77;;;19.70;;
60054;SDS011;45930;53.514;55.904;2023-08-06T04:20:06;23.88;;;19.45;;
60054;SDS011;45930;53.514;55.904;2023-08-06T04:21:07;23.42;;;18.55;;
60054;SDS011;45930;53.514;55.904;2023-08-06T04:22:08;27.67;;;19.20;;
60054;SDS011;45930;53.514;55.904;2023-08-06T04:23:09;25.02;;;19.73;;
60054;SDS011;45930;53.514;55.904;2023-08-06T04:24:10;24.50;;;18.95;;
60054;SDS011;45930;53.514;55.904;2023-08-06T04:25:10;23.63;;;19.38;;
60054;SDS011;45930;53.514;55.904;2023-08-06T04:26:11;23.13;;;19.00;;
60054;SDS011;45930;53.514;55.904;2023-08-06T04:27:13;23.52;;;19.10;;
60054;SDS011;45930;53.514;55.904;2023-08-06T04:28:14;22.92;;;19.85;;
60054;SDS011;45930;53.514;55.904;2023-08-06T04:29:15;24.67;;;19.33;;
60054;SDS011;45930;53.514;55.904;2023-08-06T04:30:16;26.00;;;20.55;;
60054;SDS011;45930;53.514;55.904;2023-08-06T04:31:17;24.42;;;19.02;;
60054;SDS011;45930;53.514;55.904;2023-08-06T04:32:17;24.00;;;18.60;;
60054;SDS011;45930;53.514;55.904;2023-08-06T04:33:20;23.05;;;18.63;;
60054;SDS011;45930;53.514;55.904;2023-08-06T04:34:20;23.02;;;19.23;;
60054;SDS011;45930;53.514;55.904;2023-08-06T04:35:21;24.85;;;20.05;;
60054;SDS011;45930;53.514;55.904;2023-08-06T04:36:22;26.20;;;18.67;;
60054;SDS011;45930;53.514;55.904;2023-08-06T04:37:23;28.10;;;20.45;;
60054;SDS011;45930;53.514;55.904;2023-08-06T04:38:24;23.27;;;19.60;;
60054;SDS011;45930;53.514;55.904;2023-08-06T04:39:27;24.88;;;20.85;;
60054;SDS011;45930;53.514;55.904;2023-08-06T04:40:28;21.95;;;19.50;;
60054;SDS011;45930;53.514;55.904;2023-08-06T04:41:29;25.65;;;20.58;;
60054;SDS011;45930;53.514;55.904;2023-08-06T04:42:30;24.52;;;19.92;;
60054;SDS011;45930;53.514;55.904;2023-08-06T04:43:31;25.17;;;19.52;;
60054;SDS011;45930;53.514;55.904;2023-08-06T04:44:32;24.05;;;19.73;;
60054;SDS011;45930;53.514;55.904;2023-08-06T04:45:33;25.60;;;19.85;;
60054;SDS011;45930;53.514;55.904;2023-08-06T04:46:33;21.83;;;19.10;;
60054;SDS011;45930;53.514;55.904;2023-08-06T04:47:34;24.13;;;20.15;;
60054;SDS011;45930;53.514;55.904;2023-08-06T04:48:35;25.20;;;19.67;;
60054;SDS011;45930;53.514;55.904;2023-08-06T04:49:36;25.10;;;19.75;;
60054;SDS011;45930;53.514;55.904;2023-08-06T04:50:37;28.52;;;20.38;;
60054;SDS011;45930;53.514;55.904;2023-08-06T04:51:37;24.60;;;20.83;;
60054;SDS011;45930;53.514;55.904;2023-08-06T04:52:39;25.55;;;20.92;;
60054;SDS011;45930;53.514;55.904;2023-08-06T04:53:40;28.33;;;21.70;;
60054;SDS011;45930;53.514;55.904;2023-08-06T04:54:41;23.35;;;20.75;;
60054;SDS011;45930;53.514;55.904;2023-08-06T04:55:42;28.48;;;21.63;;
60054;SDS011;45930;53.514;55.904;2023-08-06T04:56:42;24.50;;;20.48;;
60054;SDS011;45930;53.514;55.904;2023-08-06T04:57:43;25.48;;;20.65;;
60054;SDS011;45930;53.514;55.904;2023-08-06T04:58:44;26.70;;;21.67;;
60054;SDS011;45930;53.514;55.904;2023-08-06T04:59:45;28.40;;;21.00;;
60054;SDS011;45930;53.514;55.904;2023-08-06T05:00:46;26.55;;;21.60;;
60054;SDS011;45930;53.514;55.904;2023-08-06T05:01:47;27.33;;;20.80;;
60054;SDS011;45930;53.514;55.904;2023-08-06T05:02:48;32.45;;;20.92;;
60054;SDS011;45930;53.514;55.904;2023-08-06T05:03:48;25.05;;;20.83;;
60054;SDS011;45930;53.514;55.904;2023-08-06T05:04:49;32.17;;;21.70;;
60054;SDS011;45930;53.514;55.904;2023-08-06T05:05:50;28.27;;;22.13;;
60054;SDS011;45930;53.514;55.904;2023-08-06T05:06:51;27.58;;;22.02;;
60054;SDS011;45930;53.514;55.904;2023-08-06T05:07:53;27.55;;;23.10;;
60054;SDS011;45930;53.514;55.904;2023-08-06T05:08:55;24.77;;;21.33;;
60054;SDS011;45930;53.514;55.904;2023-08-06T05:09:56;25.98;;;21.95;;
60054;SDS011;45930;53.514;55.904;2023-08-06T05:10:56;27.13;;;21.77;;
60054;SDS011;45930;53.514;55.904;2023-08-06T05:11:57;27.05;;;23.23;;
60054;SDS011;45930;53.514;55.904;2023-08-06T05:13:00;25.52;;;22.05;;
60054;SDS011;45930;53.514;55.904;2023-08-06T05:14:01;27.25;;;20.45;;
60054;SDS011;45930;53.514;55.904;2023-08-06T05:15:02;27.20;;;21.90;;
60054;SDS011;45930;53.514;55.904;2023-08-06T05:16:05;28.88;;;22.38;;
60054;SDS011;45930;53.514;55.904;2023-08-06T05:17:05;25.92;;;21.00;;
60054;SDS011;45930;53.514;55.904;2023-08-06T05:18:06;29.10;;;21.92;;
60054;SDS011;45930;53.514;55.904;2023-08-06T05:19:07;25.27;;;21.58;;
60054;SDS011;45930;53.514;55.904;2023-08-06T05:20:11;26.48;;;21.90;;
60054;SDS011;45930;53.514;55.904;2023-08-06T05:21:12;25.17;;;20.65;;
60054;SDS011;45930;53.514;55.904;2023-08-06T05:22:13;24.65;;;21.85;;
60054;SDS011;45930;53.514;55.904;2023-08-06T05:23:13;24.48;;;20.75;;
60054;SDS011;45930;53.514;55.904;2023-08-06T05:24:14;28.13;;;22.30;;
60054;SDS011;45930;53.514;55.904;2023-08-06T05:25:15;31.45;;;21.55;;
60054;SDS011;45930;53.514;55.904;2023-08-06T05:26:16;24.30;;;19.70;;
60054;SDS011;45930;53.514;55.904;2023-08-06T05:27:18;26.50;;;21.20;;
60054;SDS011;45930;53.514;55.904;2023-08-06T05:28:19;25.80;;;22.13;;
60054;SDS011;45930;53.514;55.904;2023-08-06T05:29:20;25.90;;;19.48;;
60054;SDS011;45930;53.514;55.904;2023-08-06T05:30:21;26.10;;;19.02;;
60054;SDS011;45930;53.514;55.904;2023-08-06T05:31:22;21.13;;;18.73;;
60054;SDS011;45930;53.514;55.904;2023-08-06T05:32:23;21.88;;;19.33;;
60054;SDS011;45930;53.514;55.904;2023-08-06T05:33:24;25.50;;;20.40;;
60054;SDS011;45930;53.514;55.904;2023-08-06T05:34:24;23.73;;;20.15;;
60054;SDS011;45930;53.514;55.904;2023-08-06T05:35:25;25.70;;;20.13;;
60054;SDS011;45930;53.514;55.904;2023-08-06T05:36:26;23.50;;;20.60;;
60054;SDS011;45930;53.514;55.904;2023-08-06T05:37:27;25.55;;;18.35;;
60054;SDS011;45930;53.514;55.904;2023-08-06T05:38:29;23.67;;;19.55;;
60054;SDS011;45930;53.514;55.904;2023-08-06T05:39:30;24.92;;;20.10;;
60054;SDS011;45930;53.514;55.904;2023-08-06T05:40:32;28.52;;;20.77;;
60054;SDS011;45930;53.514;55.904;2023-08-06T05:41:34;22.98;;;19.73;;
60054;SDS011;45930;53.514;55.904;2023-08-06T05:42:34;24.00;;;19.30;;
60054;SDS011;45930;53.514;55.904;2023-08-06T05:43:35;26.25;;;21.63;;
60054;SDS011;45930;53.514;55.904;2023-08-06T05:44:36;22.00;;;18.25;;
60054;SDS011;45930;53.514;55.904;2023-08-06T05:45:37;24.08;;;19.48;;
60054;SDS011;45930;53.514;55.904;2023-08-06T05:46:38;23.20;;;18.65;;
60054;SDS011;45930;53.514;55.904;2023-08-06T05:47:38;23.13;;;19.35;;
60054;SDS011;45930;53.514;55.904;2023-08-06T05:48:39;21.33;;;16.85;;
60054;SDS011;45930;53.514;55.904;2023-08-06T05:49:40;21.08;;;18.50;;
60054;SDS011;45930;53.514;55.904;2023-08-06T05:50:41;18.92;;;16.15;;
60054;SDS011;45930;53.514;55.904;2023-08-06T05:51:42;21.85;;;16.85;;
60054;SDS011;45930;53.514;55.904;2023-08-06T05:52:43;22.85;;;17.17;;
60054;SDS011;45930;53.514;55.904;2023-08-06T05:53:43;20.13;;;16.67;;
60054;SDS011;45930;53.514;55.904;2023-08-06T05:54:46;21.77;;;15.60;;
60054;SDS011;45930;53.514;55.904;2023-08-06T05:55:47;20.25;;;16.67;;
60054;SDS011;45930;53.514;55.904;2023-08-06T05:56:48;17.30;;;14.38;;
60054;SDS011;45930;53.514;55.904;2023-08-06T05:57:48;17.67;;;14.40;;
60054;SDS011;45930;53.514;55.904;2023-08-06T05:58:49;16.20;;;14.50;;
60054;SDS011;45930;53.514;55.904;2023-08-06T05:59:53;19.50;;;13.90;;
60054;SDS011;45930;53.514;55.904;2023-08-06T06:00:54;19.40;;;14.25;;
60054;SDS011;45930;53.514;55.904;2023-08-06T06:01:54;17.42;;;14.38;;